createdAt,value
2018-06-05T00:01:56.825Z,4.00
2018-06-05T00:04:33.518Z,3.90
2018-06-05T00:07:10.309Z,3.50
2018-06-05T00:09:47.321Z,4.73
2018-06-05T00:12:24.454Z,3.23
2018-06-05T00:15:02.277Z,3.00
2018-06-05T00:17:39.284Z,3.50
2018-06-05T00:20:15.810Z,3.20
2018-06-05T00:22:52.715Z,3.23
2018-06-05T00:25:31.416Z,3.90
2018-06-05T00:28:08.686Z,3.57
2018-06-05T00:30:46.820Z,4.50
2018-06-05T00:33:24.815Z,4.10
2018-06-05T00:36:04.406Z,3.30
2018-06-05T00:38:42.137Z,5.00
2018-06-05T00:41:20.138Z,3.77
2018-06-05T00:43:59.288Z,4.23
2018-06-05T00:46:37.027Z,4.17
2018-06-05T00:49:15.118Z,3.70
2018-06-05T00:52:03.013Z,4.00
2018-06-05T00:54:40.543Z,4.27
2018-06-05T00:57:18.129Z,3.70
2018-06-05T00:59:56.549Z,4.20
2018-06-05T01:02:34.756Z,4.13
2018-06-05T01:05:12.631Z,3.30
2018-06-05T01:07:49.548Z,3.80
2018-06-05T01:10:27.878Z,3.97
2018-06-05T01:13:05.717Z,3.73
2018-06-05T01:15:43.651Z,3.80
2018-06-05T01:18:20.981Z,3.90
2018-06-05T01:20:58.783Z,4.03
2018-06-05T01:23:36.174Z,4.13
2018-06-05T01:26:13.773Z,3.87
2018-06-05T01:28:51.550Z,4.50
2018-06-05T01:31:30.218Z,4.90
2018-06-05T01:34:09.064Z,3.97
2018-06-05T01:36:46.443Z,4.67
2018-06-05T01:39:24.119Z,4.47
2018-06-05T01:42:03.053Z,4.93
2018-06-05T01:44:41.944Z,3.93
2018-06-05T01:47:20.385Z,5.07
2018-06-05T01:49:57.952Z,4.90
2018-06-05T01:52:36.509Z,4.20
2018-06-05T01:55:13.003Z,4.17
2018-06-05T01:57:50.916Z,3.80
2018-06-05T02:00:29.388Z,4.83
2018-06-05T02:03:08.359Z,4.57
2018-06-05T02:05:47.314Z,5.30
2018-06-05T02:08:25.266Z,5.50
2018-06-05T02:11:03.425Z,4.10
2018-06-05T02:13:40.596Z,4.80
2018-06-05T02:16:18.835Z,5.20
2018-06-05T02:18:56.477Z,4.70
2018-06-05T02:21:34.530Z,5.07
2018-06-05T02:24:11.472Z,5.43
2018-06-05T02:26:48.715Z,5.97
2018-06-05T02:29:25.426Z,5.73
2018-06-05T02:32:02.180Z,5.63
2018-06-05T02:34:38.941Z,6.60
2018-06-05T02:37:16.216Z,5.77
2018-06-05T02:39:53.064Z,6.03
2018-06-05T02:42:30.272Z,6.83
2018-06-05T02:45:07.284Z,5.17
2018-06-05T02:47:44.685Z,6.50
2018-06-05T02:50:21.764Z,6.60
2018-06-05T02:52:58.709Z,5.47
2018-06-05T02:55:35.559Z,7.40
2018-06-05T02:58:12.387Z,8.50
2018-06-05T03:00:49.194Z,9.70
2018-06-05T03:03:26.188Z,10.70
2018-06-05T03:06:02.864Z,10.33
2018-06-05T03:08:39.895Z,11.37
2018-06-05T03:11:18.706Z,8.67
2018-06-05T03:13:55.551Z,11.63
2018-06-05T03:16:32.558Z,9.50
2018-06-05T03:19:09.426Z,11.53
2018-06-05T03:21:46.057Z,11.63
2018-06-05T03:24:22.944Z,11.63
2018-06-05T03:26:59.921Z,11.33
2018-06-05T03:29:37.082Z,11.60
2018-06-05T03:32:14.056Z,12.83
2018-06-05T03:34:50.830Z,12.23
2018-06-05T03:37:27.732Z,12.47
2018-06-05T03:40:04.788Z,14.13
2018-06-05T03:42:41.421Z,12.67
2018-06-05T03:45:18.457Z,11.50
2018-06-05T03:47:55.350Z,12.40
2018-06-05T03:50:32.220Z,11.40
2018-06-05T03:53:08.927Z,13.07
2018-06-05T03:55:46.026Z,13.20
2018-06-05T03:58:22.745Z,13.20
2018-06-05T04:00:59.171Z,12.67
2018-06-05T04:03:36.526Z,11.47
2018-06-05T04:06:12.974Z,11.53
2018-06-05T04:08:50.196Z,12.87
2018-06-05T04:11:27.885Z,10.37
2018-06-05T04:14:04.755Z,9.63
2018-06-05T04:16:41.729Z,11.47
2018-06-05T04:19:18.803Z,10.07
2018-06-05T04:21:55.481Z,9.50
2018-06-05T04:24:32.251Z,12.53
2018-06-05T04:27:08.931Z,11.10
2018-06-05T04:29:45.910Z,9.67
2018-06-05T04:32:22.578Z,8.50
2018-06-05T04:35:00.188Z,10.80
2018-06-05T04:37:38.056Z,10.87
2018-06-05T04:40:15.520Z,11.33
2018-06-05T04:42:52.251Z,11.43
2018-06-05T04:45:29.194Z,11.43
2018-06-05T04:48:07.071Z,11.63
2018-06-05T04:50:43.933Z,11.20
2018-06-05T04:53:21.046Z,11.27
2018-06-05T04:55:58.834Z,11.70
2018-06-05T04:58:35.681Z,14.23
2018-06-05T05:01:12.939Z,14.17
2018-06-05T05:03:49.647Z,14.23
2018-06-05T05:06:26.538Z,15.07
2018-06-05T05:09:04.107Z,12.53
2018-06-05T05:11:41.520Z,13.80
2018-06-05T05:14:18.562Z,13.73
2018-06-05T05:16:55.915Z,12.87
2018-06-05T05:19:32.683Z,14.70
2018-06-05T05:22:09.421Z,15.87
2018-06-05T05:24:46.241Z,14.93
2018-06-05T05:27:23.184Z,13.53
2018-06-05T05:30:00.197Z,14.60
2018-06-05T05:32:37.164Z,14.17
2018-06-05T05:35:14.562Z,14.30
2018-06-05T05:37:51.929Z,15.10
2018-06-05T05:40:28.590Z,15.00
2018-06-05T05:43:05.976Z,15.50
2018-06-05T05:45:43.048Z,14.70
2018-06-05T05:48:20.275Z,14.20
2018-06-05T05:50:57.259Z,12.30
2018-06-05T05:53:34.822Z,11.87
2018-06-05T05:56:11.656Z,19.43
2018-06-05T05:58:48.620Z,20.33
2018-06-05T06:01:25.404Z,14.30
2018-06-05T06:04:02.595Z,13.50
2018-06-05T06:06:39.569Z,12.93
2018-06-05T06:09:16.281Z,12.20
2018-06-05T06:11:53.637Z,10.63
2018-06-05T06:14:30.087Z,11.60
2018-06-05T06:17:07.311Z,12.30
2018-06-05T06:19:43.964Z,10.43
2018-06-05T06:22:21.085Z,9.93
2018-06-05T06:24:57.908Z,10.07
2018-06-05T06:27:35.169Z,11.27
2018-06-05T06:30:12.393Z,11.60
2018-06-05T06:32:49.739Z,11.03
2018-06-05T06:35:26.695Z,11.63
2018-06-05T06:38:05.029Z,10.27
2018-06-05T06:40:43.862Z,12.57
2018-06-05T06:43:20.597Z,12.27
2018-06-05T06:45:57.505Z,10.67
2018-06-05T06:48:34.655Z,11.00
2018-06-05T06:51:11.423Z,10.93
2018-06-05T06:53:49.121Z,8.80
2018-06-05T06:56:26.269Z,10.50
2018-06-05T06:59:02.856Z,9.10
2018-06-05T07:01:39.800Z,11.43
2018-06-05T07:04:17.364Z,10.30
2018-06-05T07:06:54.703Z,10.23
2018-06-05T07:09:32.768Z,10.80
2018-06-05T07:12:09.059Z,11.67
2018-06-05T07:14:45.594Z,11.87
2018-06-05T07:17:21.980Z,11.40
2018-06-05T07:19:59.079Z,11.23
2018-06-05T07:22:36.327Z,11.10
2018-06-05T07:25:13.910Z,11.47
2018-06-05T07:27:50.070Z,12.20
2018-06-05T07:30:27.122Z,12.57
2018-06-05T07:33:04.119Z,8.87
2018-06-05T07:35:40.796Z,7.40
2018-06-05T07:38:17.738Z,8.53
2018-06-05T07:40:54.388Z,7.27
2018-06-05T07:43:31.349Z,8.73
2018-06-05T07:46:08.007Z,9.87
2018-06-05T07:48:44.565Z,9.30
2018-06-05T07:51:21.621Z,10.70
2018-06-05T07:53:58.336Z,7.57
2018-06-05T07:56:35.455Z,6.30
2018-06-05T07:59:12.072Z,9.13
2018-06-05T08:01:49.081Z,8.00
2018-06-05T08:04:26.014Z,5.60
2018-06-05T08:07:03.177Z,6.80
2018-06-05T08:09:40.451Z,8.83
2018-06-05T08:12:17.001Z,6.90
2018-06-05T08:14:53.639Z,6.53
2018-06-05T08:17:31.731Z,6.77
2018-06-05T08:20:09.171Z,8.83
2018-06-05T08:22:52.595Z,7.97
2018-06-05T08:25:29.901Z,8.80
2018-06-05T08:28:06.927Z,9.00
2018-06-05T08:30:43.924Z,8.30
2018-06-05T08:33:20.674Z,8.87
2018-06-05T08:35:57.457Z,8.23
2018-06-05T08:38:34.655Z,7.67
2018-06-05T08:41:11.981Z,7.43
2018-06-05T08:43:48.310Z,7.27
2018-06-05T08:46:25.374Z,7.67
2018-06-05T08:49:02.510Z,8.90
2018-06-05T08:51:39.524Z,9.07
2018-06-05T08:54:16.353Z,8.07
2018-06-05T08:56:53.713Z,6.90
2018-06-05T08:59:30.704Z,7.97
2018-06-05T09:02:07.703Z,7.20
2018-06-05T09:04:44.904Z,7.87
2018-06-05T09:07:21.582Z,8.80
2018-06-05T09:09:58.415Z,8.33
2018-06-05T09:12:35.508Z,8.27
2018-06-05T09:15:12.651Z,7.00
2018-06-05T09:17:49.384Z,6.47
2018-06-05T09:20:26.385Z,6.90
2018-06-05T09:23:03.270Z,6.20
2018-06-05T09:25:40.068Z,6.90
2018-06-05T09:28:17.065Z,6.77
2018-06-05T09:30:53.954Z,6.03
2018-06-05T09:33:30.741Z,6.67
2018-06-05T09:36:07.888Z,6.50
2018-06-05T09:38:44.781Z,7.40
2018-06-05T09:41:21.540Z,6.70
2018-06-05T09:43:58.621Z,7.43
2018-06-05T09:46:35.420Z,6.20
2018-06-05T09:49:12.531Z,7.10
2018-06-05T09:51:49.757Z,5.70
2018-06-05T09:54:26.614Z,6.47
2018-06-05T09:57:04.067Z,5.90
2018-06-05T09:59:41.303Z,7.10
2018-06-05T10:02:18.392Z,6.90
2018-06-05T10:04:55.269Z,6.40
2018-06-05T10:07:32.137Z,6.07
2018-06-05T10:10:08.889Z,6.87
2018-06-05T10:12:45.913Z,6.40
2018-06-05T10:15:22.990Z,7.20
2018-06-05T10:18:01.181Z,5.73
2018-06-05T10:20:38.166Z,5.77
2018-06-05T10:23:14.987Z,7.33
2018-06-05T10:25:51.908Z,5.97
2018-06-05T10:28:28.965Z,5.87
2018-06-05T10:31:05.763Z,5.60
2018-06-05T10:33:42.629Z,6.50
2018-06-05T10:36:20.401Z,6.33
2018-06-05T10:38:57.601Z,7.00
2018-06-05T10:41:34.446Z,6.53
2018-06-05T10:44:11.017Z,7.77
2018-06-05T10:46:48.034Z,7.27
2018-06-05T10:49:24.840Z,5.67
2018-06-05T10:52:02.276Z,6.93
2018-06-05T10:54:39.877Z,6.97
2018-06-05T10:57:16.473Z,6.07
2018-06-05T10:59:53.663Z,5.10
2018-06-05T11:02:30.544Z,6.17
2018-06-05T11:05:07.578Z,6.57
2018-06-05T11:07:45.301Z,5.93
2018-06-05T11:10:22.436Z,5.80
2018-06-05T11:12:59.695Z,5.63
2018-06-05T11:15:37.376Z,4.97
2018-06-05T11:18:14.327Z,6.37
2018-06-05T11:20:51.141Z,5.67
2018-06-05T11:23:28.787Z,4.20
2018-06-05T11:26:05.645Z,6.10
2018-06-05T11:28:42.878Z,6.80
2018-06-05T11:31:20.866Z,5.80
2018-06-05T11:33:57.311Z,4.80
2018-06-05T11:36:34.136Z,5.33
2018-06-05T11:39:11.172Z,6.83
2018-06-05T11:41:48.119Z,5.70
2018-06-05T11:44:24.939Z,6.00
2018-06-05T11:47:01.788Z,6.03
2018-06-05T11:49:38.562Z,5.93
2018-06-05T11:52:15.476Z,5.23
2018-06-05T11:54:52.602Z,6.47
2018-06-05T11:57:30.048Z,6.00
2018-06-05T12:00:07.738Z,6.20
2018-06-05T12:02:44.911Z,6.60
2018-06-05T12:05:21.746Z,6.10
2018-06-05T12:07:58.696Z,6.60
2018-06-05T12:10:36.012Z,6.13
2018-06-05T12:13:12.908Z,6.33
2018-06-05T12:15:50.605Z,5.97
2018-06-05T12:18:27.498Z,5.70
2018-06-05T12:21:04.704Z,6.00
2018-06-05T12:23:41.467Z,6.63
2018-06-05T12:26:18.566Z,6.70
2018-06-05T12:28:54.956Z,6.40
2018-06-05T12:31:32.032Z,7.37
2018-06-05T12:34:11.675Z,5.83
2018-06-05T12:37:04.140Z,6.60
2018-06-05T12:39:41.060Z,5.70
2018-06-05T12:42:18.933Z,7.77
2018-06-05T12:44:55.949Z,5.87
2018-06-05T12:47:32.894Z,7.43
2018-06-05T12:50:09.577Z,8.63
2018-06-05T12:52:46.795Z,7.70
2018-06-05T12:55:23.319Z,9.20
2018-06-05T12:58:00.440Z,6.90
2018-06-05T13:00:37.186Z,7.37
2018-06-05T13:03:13.765Z,7.22
2018-06-05T13:05:50.676Z,7.83
2018-06-05T13:08:27.510Z,7.53
2018-06-05T13:11:04.452Z,6.73
2018-06-05T13:13:41.284Z,8.03
2018-06-05T13:16:18.362Z,7.10
2018-06-05T13:18:55.690Z,6.50
2018-06-05T13:21:32.477Z,6.33
2018-06-05T13:24:09.527Z,5.20
2018-06-05T13:26:46.739Z,5.30
2018-06-05T13:29:23.081Z,6.50
2018-06-05T13:31:59.868Z,4.80
2018-06-05T13:34:36.961Z,6.77
2018-06-05T13:37:13.986Z,4.80
2018-06-05T13:39:50.582Z,5.43
2018-06-05T13:42:27.351Z,5.90
2018-06-05T13:45:04.593Z,5.53
2018-06-05T13:47:41.256Z,6.07
2018-06-05T13:50:18.306Z,5.40
2018-06-05T13:52:55.005Z,5.20
2018-06-05T13:55:32.026Z,6.03
2018-06-05T13:58:09.012Z,5.00
2018-06-05T14:00:45.738Z,5.10
2018-06-05T14:03:22.608Z,4.90
2018-06-05T14:05:59.335Z,4.37
2018-06-05T14:08:36.455Z,4.93
2018-06-05T14:11:13.637Z,4.87
2018-06-05T14:13:51.186Z,4.33
2018-06-05T14:16:28.014Z,6.13
2018-06-05T14:19:04.824Z,5.30
2018-06-05T14:21:42.592Z,4.33
2018-06-05T14:24:19.531Z,5.63
2018-06-05T14:26:56.136Z,4.77
2018-06-05T14:29:33.108Z,5.33
2018-06-05T14:32:10.342Z,3.87
2018-06-05T14:34:47.415Z,4.30
2018-06-05T14:37:24.316Z,4.13
2018-06-05T14:40:01.415Z,4.77
2018-06-05T14:42:39.596Z,4.37
2018-06-05T14:45:17.135Z,5.13
2018-06-05T14:47:53.670Z,5.27
2018-06-05T14:50:30.828Z,4.40
2018-06-05T14:53:08.761Z,5.20
2018-06-05T14:55:46.522Z,5.63
2018-06-05T14:58:23.689Z,5.73
2018-06-05T15:00:59.976Z,4.47
2018-06-05T15:03:36.544Z,4.13
2018-06-05T15:06:13.381Z,6.60
2018-06-05T15:08:50.527Z,4.40
2018-06-05T15:11:27.418Z,5.40
2018-06-05T15:14:04.041Z,4.67
2018-06-05T15:16:41.354Z,6.10
2018-06-05T15:19:18.645Z,5.70
2018-06-05T15:21:55.038Z,5.00
2018-06-05T15:24:31.790Z,5.60
2018-06-05T15:27:08.636Z,4.83
2018-06-05T15:29:45.655Z,5.83
2018-06-05T15:32:22.731Z,6.33
2018-06-05T15:34:59.454Z,6.33
2018-06-05T15:37:36.152Z,8.10
2018-06-05T15:40:13.503Z,8.10
2018-06-05T15:42:50.352Z,7.73
2018-06-05T15:45:26.833Z,14.10
2018-06-05T15:48:03.885Z,7.90
2018-06-05T15:50:40.794Z,6.90
2018-06-05T15:53:17.757Z,7.40
2018-06-05T15:55:54.925Z,5.90
2018-06-05T15:58:31.805Z,7.17
2018-06-05T16:01:08.973Z,6.30
2018-06-05T16:03:45.627Z,5.63
2018-06-05T16:06:23.821Z,5.47
2018-06-05T16:09:00.920Z,4.10
2018-06-05T16:11:37.207Z,3.23
2018-06-05T16:14:14.358Z,3.40
2018-06-05T16:16:51.846Z,4.40
2018-06-05T16:19:28.469Z,3.63
2018-06-05T16:22:05.109Z,3.30
2018-06-05T16:24:42.085Z,3.50
2018-06-05T16:27:18.789Z,3.40
2018-06-05T16:29:55.862Z,3.30
2018-06-05T16:32:39.910Z,3.20
2018-06-05T16:35:16.465Z,3.07
2018-06-05T16:37:53.431Z,2.53
2018-06-05T16:40:30.285Z,2.27
2018-06-05T16:43:07.169Z,3.20
2018-06-05T16:45:43.859Z,2.90
2018-06-05T16:48:20.562Z,2.30
2018-06-05T16:50:57.584Z,2.60
2018-06-05T16:53:34.894Z,1.90
2018-06-05T16:56:11.519Z,2.50
2018-06-05T16:58:48.083Z,2.57
2018-06-05T17:01:25.579Z,3.73
2018-06-05T17:04:02.247Z,3.30
2018-06-05T17:06:39.300Z,4.10
2018-06-05T17:09:16.109Z,4.00
2018-06-05T17:11:53.645Z,3.90
2018-06-05T17:14:30.392Z,3.30
2018-06-05T17:17:07.268Z,3.13
2018-06-05T17:19:44.265Z,3.70
2018-06-05T17:22:21.033Z,3.20
2018-06-05T17:24:58.547Z,3.60
2018-06-05T17:27:35.196Z,2.83
2018-06-05T17:30:12.332Z,2.73
2018-06-05T17:32:49.064Z,3.50
2018-06-05T17:35:25.632Z,2.37
2018-06-05T17:38:02.364Z,2.70
2018-06-05T17:40:39.720Z,3.40
2018-06-05T17:43:16.479Z,2.90
2018-06-05T17:45:53.327Z,2.77
2018-06-05T17:48:29.850Z,3.20
2018-06-05T17:51:06.485Z,3.00
2018-06-05T17:53:43.716Z,2.47
2018-06-05T17:56:20.594Z,2.60
2018-06-05T17:58:57.396Z,2.80
2018-06-05T18:01:34.042Z,2.40
2018-06-05T18:04:10.949Z,2.87
2018-06-05T18:06:48.089Z,2.57
2018-06-05T18:09:24.655Z,3.17
2018-06-05T18:12:01.595Z,2.23
2018-06-05T18:14:38.392Z,2.57
2018-06-05T18:17:16.271Z,1.70
2018-06-05T18:19:54.267Z,1.67
2018-06-05T18:22:31.473Z,2.20
2018-06-05T18:25:08.529Z,2.20
2018-06-05T18:27:45.369Z,3.23
2018-06-05T18:30:22.116Z,3.00
2018-06-05T18:32:59.319Z,2.97
2018-06-05T18:35:36.283Z,3.50
2018-06-05T18:38:12.985Z,3.37
2018-06-05T18:40:49.580Z,2.43
2018-06-05T18:43:27.526Z,2.93
2018-06-05T18:46:04.379Z,3.37
2018-06-05T18:48:41.112Z,2.70
2018-06-05T18:51:17.995Z,2.67
2018-06-05T18:53:54.688Z,2.20
2018-06-05T18:56:32.460Z,2.83
2018-06-05T18:59:09.506Z,3.60
2018-06-05T19:01:46.091Z,2.60
2018-06-05T19:04:23.136Z,2.33
2018-06-05T19:07:00.020Z,3.60
2018-06-05T19:09:36.600Z,3.20
2018-06-05T19:12:14.510Z,2.60
2018-06-05T19:14:51.594Z,3.33
2018-06-05T19:17:28.445Z,2.50
2018-06-05T19:20:05.486Z,3.17
2018-06-05T19:22:41.776Z,2.40
2018-06-05T19:25:18.797Z,2.57
2018-06-05T19:27:55.632Z,2.70
2018-06-05T19:30:32.829Z,1.80
2018-06-05T19:33:09.468Z,2.43
2018-06-05T19:35:47.676Z,2.10
2018-06-05T19:38:24.792Z,2.80
2018-06-05T19:41:02.423Z,2.90
2018-06-05T19:43:39.118Z,3.30
2018-06-05T19:46:16.109Z,3.90
2018-06-05T19:48:53.382Z,3.50
2018-06-05T19:51:33.764Z,2.43
2018-06-05T19:54:11.235Z,3.43
2018-06-05T19:56:48.915Z,3.40
2018-06-05T19:59:25.672Z,3.00
2018-06-05T20:02:02.496Z,2.90
2018-06-05T20:04:39.357Z,3.10
2018-06-05T20:07:16.151Z,3.60
2018-06-05T20:09:53.272Z,3.50
2018-06-05T20:12:30.876Z,5.30
2018-06-05T20:15:07.928Z,3.13
2018-06-05T20:17:45.009Z,4.20
2018-06-05T20:20:22.469Z,3.17
2018-06-05T20:23:00.055Z,4.70
2018-06-05T20:25:37.274Z,5.37
2018-06-05T20:28:14.266Z,4.40
2018-06-05T20:30:51.226Z,21.23
2018-06-05T20:33:28.073Z,4.80
2018-06-05T20:36:04.841Z,3.90
2018-06-05T20:38:41.817Z,4.30
2018-06-05T20:41:18.764Z,4.60
2018-06-05T20:43:55.625Z,3.70
2018-06-05T20:46:33.911Z,8.50
2018-06-05T20:49:10.733Z,7.43
2018-06-05T20:51:49.445Z,7.60
2018-06-05T20:54:26.816Z,5.13
2018-06-05T20:57:03.838Z,5.17
2018-06-05T20:59:40.583Z,3.80
2018-06-05T21:02:17.358Z,3.50
2018-06-05T21:04:55.477Z,3.43
2018-06-05T21:07:32.486Z,3.93
2018-06-05T21:10:09.223Z,3.53
2018-06-05T21:12:47.493Z,3.60
2018-06-05T21:15:25.307Z,3.00
2018-06-05T21:18:02.257Z,3.20
2018-06-05T21:20:39.522Z,4.43
2018-06-05T21:23:17.993Z,3.73
2018-06-05T21:25:56.275Z,3.43
2018-06-05T21:28:34.822Z,3.87
2018-06-05T21:31:13.291Z,4.00
2018-06-05T21:33:50.891Z,3.40
2018-06-05T21:36:29.918Z,3.80
2018-06-05T21:39:12.656Z,3.73
2018-06-05T21:41:50.220Z,3.03
2018-06-05T21:44:26.547Z,4.50
2018-06-05T21:47:03.373Z,4.53
2018-06-05T21:49:40.065Z,3.63
2018-06-05T21:52:16.914Z,3.70
2018-06-05T21:54:53.637Z,4.90
2018-06-05T21:57:30.745Z,4.33
2018-06-05T22:00:07.739Z,3.80
2018-06-05T22:02:45.168Z,4.00
2018-06-05T22:05:21.928Z,3.37
2018-06-05T22:07:59.004Z,5.13
2018-06-05T22:10:36.067Z,5.40
2018-06-05T22:13:12.340Z,4.03
2018-06-05T22:15:49.855Z,3.03
2018-06-05T22:18:26.486Z,3.10
2018-06-05T22:21:03.566Z,4.10
2018-06-05T22:23:39.977Z,3.90
2018-06-05T22:26:16.428Z,3.30
2018-06-05T22:28:54.737Z,3.57
2018-06-05T22:31:37.233Z,3.00
2018-06-05T22:34:14.257Z,3.07
2018-06-05T22:36:51.161Z,3.37
2018-06-05T22:39:28.649Z,3.43
2018-06-05T22:42:05.891Z,3.57
2018-06-05T22:44:42.665Z,3.17
2018-06-05T22:47:20.059Z,2.30
2018-06-05T22:49:56.617Z,3.00
2018-06-05T22:52:33.257Z,2.43
2018-06-05T22:55:10.387Z,2.20
2018-06-05T22:57:47.512Z,3.43
2018-06-05T23:00:33.560Z,5.00
2018-06-05T23:03:10.567Z,2.27
2018-06-05T23:05:47.303Z,2.90
2018-06-05T23:08:24.251Z,2.90
2018-06-05T23:11:01.197Z,2.70
2018-06-05T23:13:37.751Z,2.73
2018-06-05T23:16:14.818Z,2.53
2018-06-05T23:18:51.474Z,2.43
2018-06-05T23:21:28.447Z,3.33
2018-06-05T23:24:05.017Z,2.30
2018-06-05T23:26:41.775Z,2.53
2018-06-05T23:29:18.563Z,3.03
2018-06-05T23:31:55.820Z,2.30
2018-06-05T23:34:32.528Z,2.63
2018-06-05T23:37:09.670Z,2.57
2018-06-05T23:39:46.293Z,2.23
2018-06-05T23:42:23.221Z,2.27
2018-06-05T23:45:00.242Z,2.10
2018-06-05T23:47:36.987Z,2.43
2018-06-05T23:50:14.000Z,3.40
2018-06-05T23:52:50.807Z,2.60
2018-06-05T23:55:27.816Z,2.73
2018-06-05T23:58:04.636Z,3.37
